Weather History for Bremerton, WA

Change the Weather History Date:

Monday, January 16, 2012

  Actual Average Record
Temperature  
Mean Temperature 30 °F -  
Max Temperature 33 °F 43 °F 53 °F (2011)
Min Temperature 26 °F 34 °F 19 °F (2013)
Degree Days  
Heating Degree Days 36    
Moisture  
Dew Point 28 °F    
Average Humidity 91    
Maximum Humidity 100    
Minimum Humidity 86    
Precipitation  
Precipitation 0.01 in - - ()
Sea Level Pressure  
Sea Level Pressure 30.09 in    
Wind  
Wind Speed 6 mph (South)    
Max Wind Speed 15 mph    
Max Gust Speed 24 mph    
Visibility 9 miles    
Events      
Averages and records for this station are not official NWS values.
T = Trace of Precipitation, MM = Missing Value Source: NWS Daily Summary

Daily Weather History Graph

Daily Weather History Graph

Search for Another Location

Airport:

Trip Planner

Search our weather history database for the weather conditions in past years. The results will help you decide how hot, cold, wet, or windy it might be!

Date:

Astronomy

Jan. 16, 2012 Rise Set
Actual Time 7:53 AM PST 4:48 PM PST
Civil Twilight 7:19 AM PST 5:22 PM PST
Nautical Twilight 6:41 AM PST 6:00 PM PST
Astronomical Twilight 6:04 AM PST 6:37 PM PST
Moon 1:01 AM PST (1/16) 11:11 AM PST (1/16)
Length of Visible Light 10h 03m
Length of Day
8h 54m
Last Quarter, 45% of the Moon is Illuminated
Jan 16
Last Quarter
Jan 22
New
Jan 30
First Quarter
Feb 7
Full
Feb 14
Last Quarter

Hourly Weather History & Observations

Time (PST) Temp. Windchill Dew Point Humidity Pressure Visibility Wind Dir Wind Speed Gust Speed Precip Events Conditions
12:15 AM 28.4 °F - 26.6 °F 93% 30.12 in 10.0 mi Calm Calm - N/A   Overcast
12:35 AM 28.4 °F - 26.6 °F 93% 30.12 in 10.0 mi Calm Calm - N/A   Overcast
12:55 AM 28.4 °F - 26.6 °F 93% 30.13 in 10.0 mi Calm Calm - N/A   Overcast
1:15 AM 28.4 °F - 26.6 °F 93% 30.13 in 10.0 mi Calm Calm - N/A   Overcast
1:35 AM 28.4 °F - 26.6 °F 93% 30.12 in 10.0 mi Calm Calm - N/A   Overcast
1:55 AM 28.4 °F 24.6 °F 26.6 °F 93% 30.13 in 10.0 mi SSW 3.5 mph - N/A   Overcast
2:15 AM 28.4 °F 24.6 °F 26.6 °F 93% 30.14 in 10.0 mi South 3.5 mph - N/A   Overcast
2:35 AM 28.4 °F 22.2 °F 26.6 °F 93% 30.13 in 10.0 mi South 5.8 mph - N/A   Mostly Cloudy
2:55 AM 28.4 °F 22.2 °F 26.6 °F 93% 30.13 in 10.0 mi South 5.8 mph - N/A   Overcast
3:15 AM 28.4 °F 22.2 °F 26.6 °F 93% 30.13 in 10.0 mi South 5.8 mph - N/A   Overcast
3:35 AM 28.4 °F 23.3 °F 26.6 °F 93% 30.13 in 10.0 mi South 4.6 mph - N/A   Overcast
3:55 AM 28.4 °F 22.2 °F 24.8 °F 86% 30.13 in 10.0 mi SSW 5.8 mph - N/A   Mostly Cloudy
4:15 AM 26.6 °F 18.2 °F 24.8 °F 93% 30.12 in 10.0 mi South 8.1 mph - N/A   Partly Cloudy
4:35 AM 26.6 °F 22.6 °F 24.8 °F 93% 30.11 in 10.0 mi South 3.5 mph - N/A   Clear
4:55 AM 28.4 °F 20.4 °F 26.6 °F 93% 30.11 in 10.0 mi SW 8.1 mph - N/A   Mostly Cloudy
5:15 AM 26.6 °F 16.2 °F 24.8 °F 93% 30.12 in 10.0 mi SW 11.5 mph - N/A   Overcast
5:35 AM 26.6 °F 21.2 °F 24.8 °F 93% 30.12 in 10.0 mi SSW 4.6 mph - N/A   Overcast
5:55 AM 26.6 °F 20.0 °F 26.6 °F 100% 30.12 in 10.0 mi South 5.8 mph - N/A   Overcast
6:15 AM 26.6 °F 19.1 °F 24.8 °F 93% 30.13 in 10.0 mi South 6.9 mph - N/A   Overcast
6:35 AM 26.6 °F 19.1 °F 24.8 °F 93% 30.13 in 10.0 mi South 6.9 mph - N/A   Overcast
6:55 AM 28.4 °F 19.7 °F 26.6 °F 93% 30.12 in 10.0 mi South 9.2 mph - N/A   Overcast
7:15 AM 28.4 °F 20.4 °F 24.8 °F 86% 30.12 in 10.0 mi South 8.1 mph - N/A   Overcast
7:35 AM 28.4 °F 20.4 °F 24.8 °F 86% 30.12 in 10.0 mi SSW 8.1 mph - N/A   Overcast
7:55 AM 28.4 °F 24.6 °F 26.6 °F 93% 30.11 in 10.0 mi South 3.5 mph - N/A   Overcast
8:15 AM 28.4 °F 23.3 °F 24.8 °F 86% 30.12 in 10.0 mi South 4.6 mph - N/A   Overcast
8:35 AM 28.4 °F 21.2 °F 26.6 °F 93% 30.12 in 10.0 mi SW 6.9 mph - N/A   Overcast
8:55 AM 28.4 °F 22.2 °F 26.6 °F 93% 30.12 in 10.0 mi SSW 5.8 mph - N/A   Overcast
9:15 AM 28.4 °F 21.2 °F 26.6 °F 93% 30.12 in 10.0 mi SSW 6.9 mph - N/A   Overcast
9:35 AM 28.4 °F 19.1 °F 26.6 °F 93% 30.11 in 9.0 mi South 10.4 mph - N/A   Overcast
9:55 AM 30.2 °F 20.8 °F 28.4 °F 93% 30.12 in 8.0 mi South 11.5 mph - N/A   Overcast
10:15 AM 30.2 °F 22.6 °F 28.4 °F 93% 30.13 in 2.0 mi South 8.1 mph - N/A   Overcast
10:35 AM 30.2 °F 20.8 °F 28.4 °F 93% 30.13 in 6.0 mi South 11.5 mph 16.1 mph N/A   Overcast
10:55 AM 30.2 °F 23.4 °F 28.4 °F 93% 30.11 in 10.0 mi South 6.9 mph - N/A   Overcast
11:15 AM 30.2 °F 20.8 °F 28.4 °F 93% 30.10 in 1.5 mi South 11.5 mph - N/A   Overcast
11:35 AM 30.2 °F 20.2 °F 28.4 °F 93% 30.10 in 5.0 mi South 12.7 mph - N/A   Overcast
12:15 PM 30.2 °F 21.9 °F 28.4 °F 93% 30.09 in 5.0 mi South 9.2 mph - N/A   Overcast
12:35 PM 32.0 °F 24.8 °F 30.2 °F 93% 30.07 in 10.0 mi South 8.1 mph - N/A   Overcast
12:55 PM 32.0 °F 22.1 °F 30.2 °F 93% 30.07 in 10.0 mi South 13.8 mph 17.3 mph N/A   Overcast
1:15 PM 32.0 °F 22.5 °F 30.2 °F 93% 30.06 in 10.0 mi South 12.7 mph 24.2 mph N/A   Overcast
1:35 PM 32.0 °F 24.2 °F 30.2 °F 93% 30.06 in 10.0 mi South 9.2 mph 18.4 mph 0.01 in   Overcast
1:55 PM 33.8 °F 25.3 °F 30.2 °F 87% 30.05 in 10.0 mi South 11.5 mph 17.3 mph 0.01 in   Overcast
2:15 PM 33.8 °F 25.3 °F 30.2 °F 87% 30.05 in 10.0 mi South 11.5 mph 18.4 mph N/A   Overcast
2:35 PM 33.8 °F 25.3 °F 30.2 °F 87% 30.06 in 10.0 mi South 11.5 mph 17.3 mph N/A   Overcast
2:55 PM 33.8 °F 24.8 °F 30.2 °F 87% 30.06 in 10.0 mi South 12.7 mph 18.4 mph N/A   Overcast
3:15 PM 33.8 °F 25.3 °F 30.2 °F 87% 30.05 in 10.0 mi South 11.5 mph 20.7 mph N/A   Overcast
3:35 PM 33.8 °F 23.9 °F 30.2 °F 87% 30.05 in 10.0 mi South 15.0 mph 20.7 mph N/A   Overcast
3:55 PM 33.8 °F 24.3 °F 30.2 °F 87% 30.06 in 10.0 mi South 13.8 mph 18.4 mph N/A   Overcast
4:15 PM 33.8 °F 25.3 °F 30.2 °F 87% 30.06 in 10.0 mi South 11.5 mph - N/A   Overcast
4:35 PM 33.8 °F 24.8 °F 30.2 °F 87% 30.05 in 10.0 mi South 12.7 mph 18.4 mph N/A   Overcast
4:55 PM 33.8 °F 24.8 °F 30.2 °F 87% 30.04 in 10.0 mi South 12.7 mph 20.7 mph N/A   Overcast
5:15 PM 33.8 °F 24.8 °F 30.2 °F 87% 30.05 in 10.0 mi South 12.7 mph 20.7 mph N/A   Overcast
5:35 PM 33.8 °F 24.3 °F 30.2 °F 87% 30.05 in 10.0 mi South 13.8 mph 18.4 mph N/A   Overcast
6:15 PM 33.8 °F 24.8 °F 30.2 °F 87% 30.03 in 10.0 mi South 12.7 mph 17.3 mph N/A   Overcast
6:55 PM 32.0 °F 23.6 °F 30.2 °F 93% 30.03 in 10.0 mi South 10.4 mph 16.1 mph N/A   Overcast
7:15 PM 32.0 °F 23.6 °F 30.2 °F 93% 30.03 in 4.0 mi South 10.4 mph - N/A   Overcast
7:35 PM 32.0 °F 22.5 °F 30.2 °F 93% 30.02 in 10.0 mi South 12.7 mph - N/A   Overcast
7:55 PM 32.0 °F 23.6 °F 30.2 °F 93% 30.00 in 10.0 mi South 10.4 mph - N/A   Overcast
8:35 PM 32.0 °F 22.1 °F 30.2 °F 93% 29.99 in 10.0 mi South 13.8 mph 18.4 mph N/A   Overcast
8:55 PM 32.0 °F 23.0 °F 30.2 °F 93% 29.99 in 10.0 mi South 11.5 mph 21.9 mph N/A   Overcast
9:15 PM 32.0 °F 22.5 °F 30.2 °F 93% 29.99 in 10.0 mi South 12.7 mph 18.4 mph N/A   Overcast
9:35 PM 32.0 °F 21.6 °F 30.2 °F 93% 29.99 in 9.0 mi South 15.0 mph 20.7 mph N/A   Overcast
9:55 PM 32.0 °F 22.1 °F 30.2 °F 93% 29.98 in 5.0 mi South 13.8 mph 20.7 mph 0.01 in   Overcast
10:15 PM 32.0 °F 21.6 °F 30.2 °F 93% 29.97 in 4.0 mi South 15.0 mph 19.6 mph N/A   Overcast
10:35 PM 32.0 °F 22.1 °F 30.2 °F 93% 29.96 in 9.0 mi South 13.8 mph 19.6 mph N/A   Overcast
10:55 PM 32.0 °F 21.2 °F 30.2 °F 93% 29.96 in 10.0 mi SSW 16.1 mph 21.9 mph N/A   Overcast
11:15 PM 32.0 °F 22.1 °F 30.2 °F 93% 29.97 in 10.0 mi South 13.8 mph 21.9 mph N/A   Overcast
11:35 PM 32.0 °F 23.0 °F 30.2 °F 93% 29.96 in 4.0 mi South 11.5 mph - 0.01 in   Overcast
11:55 PM 32.0 °F 21.6 °F 30.2 °F 93% 29.95 in 10.0 mi South 15.0 mph 21.9 mph 0.01 in   Overcast